createdAt,value
2017-11-18T00:01:23.523Z,5.90
2017-11-18T00:03:53.126Z,3.73
2017-11-18T00:06:22.609Z,8.20
2017-11-18T00:08:52.363Z,7.10
2017-11-18T00:11:21.764Z,7.77
2017-11-18T00:13:51.578Z,5.47
2017-11-18T00:16:21.054Z,4.53
2017-11-18T00:18:51.335Z,4.33
2017-11-18T00:21:20.773Z,4.43
2017-11-18T00:23:50.338Z,3.87
2017-11-18T00:26:24.101Z,4.50
2017-11-18T00:28:53.472Z,8.37
2017-11-18T00:31:23.710Z,9.23
2017-11-18T00:33:53.885Z,7.53
2017-11-18T00:36:23.218Z,9.13
2017-11-18T00:38:53.061Z,8.57
2017-11-18T00:41:22.663Z,12.93
2017-11-18T00:43:52.115Z,6.30
2017-11-18T00:46:22.196Z,7.70
2017-11-18T00:48:51.533Z,7.82
2017-11-18T00:51:21.205Z,9.73
2017-11-18T00:53:50.632Z,12.73
2017-11-18T00:56:20.302Z,11.90
2017-11-18T00:58:51.320Z,10.57
2017-11-18T01:01:21.103Z,10.00
2017-11-18T01:03:50.817Z,8.73
2017-11-18T01:06:20.393Z,8.75
2017-11-18T01:08:50.882Z,10.67
2017-11-18T01:11:20.674Z,15.43
2017-11-18T01:13:50.939Z,10.10
2017-11-18T01:16:23.420Z,10.63
2017-11-18T01:18:52.649Z,10.63
2017-11-18T01:21:21.968Z,13.33
2017-11-18T01:23:56.933Z,10.65
2017-11-18T01:26:35.270Z,6.40
2017-11-18T01:31:40.050Z,8.60
2017-11-18T01:34:12.106Z,8.10
2017-11-18T01:39:26.800Z,9.80
2017-11-18T01:41:57.219Z,6.43
2017-11-18T01:44:26.606Z,12.30
2017-11-18T01:46:55.883Z,12.10
2017-11-18T01:49:25.231Z,7.57
2017-11-18T01:51:54.725Z,9.40
2017-11-18T01:54:24.207Z,9.50
2017-11-18T01:56:53.672Z,7.77
2017-11-18T01:59:25.178Z,11.10
2017-11-18T02:01:54.560Z,10.50
2017-11-18T02:04:24.304Z,10.85
2017-11-18T02:06:53.848Z,10.63
2017-11-18T02:09:23.514Z,12.20
2017-11-18T02:11:53.140Z,14.87
2017-11-18T02:14:22.713Z,8.07
2017-11-18T02:16:52.428Z,9.00
2017-11-18T02:19:21.921Z,7.37
2017-11-18T02:21:51.498Z,11.90
2017-11-18T02:24:26.481Z,21.20
2017-11-18T02:26:56.085Z,16.87
2017-11-18T02:29:25.343Z,13.25
2017-11-18T02:31:54.892Z,17.02
2017-11-18T02:34:24.438Z,12.37
2017-11-18T02:36:54.035Z,15.73
2017-11-18T02:39:24.221Z,13.88
2017-11-18T02:41:53.840Z,14.60
2017-11-18T02:44:23.705Z,7.72
2017-11-18T02:46:53.497Z,20.45
2017-11-18T02:49:24.081Z,10.60
2017-11-18T02:51:53.559Z,10.60
2017-11-18T02:54:23.174Z,8.35
2017-11-18T02:56:52.872Z,9.50
2017-11-18T02:59:24.222Z,7.37
2017-11-18T03:01:53.652Z,7.50
2017-11-18T03:04:22.817Z,8.68
2017-11-18T03:06:52.417Z,9.38
2017-11-18T03:09:21.881Z,8.70
2017-11-18T03:11:51.427Z,8.32
2017-11-18T03:14:21.922Z,8.00
2017-11-18T03:16:51.397Z,13.43
2017-11-18T03:19:20.908Z,12.13
2017-11-18T03:21:50.437Z,10.02
2017-11-18T03:24:19.910Z,8.57
2017-11-18T03:26:49.313Z,10.35
2017-11-18T03:29:18.822Z,11.32
2017-11-18T03:31:48.619Z,6.85
2017-11-18T03:34:18.394Z,8.30
2017-11-18T03:36:48.023Z,8.10
2017-11-18T03:39:17.783Z,10.00
2017-11-18T03:41:47.162Z,10.30
2017-11-18T03:44:16.849Z,10.35
2017-11-18T03:46:46.315Z,11.50
2017-11-18T03:49:15.835Z,12.55
2017-11-18T03:51:45.258Z,10.85
2017-11-18T03:54:14.795Z,15.32
2017-11-18T03:56:45.235Z,12.98
2017-11-18T03:59:14.617Z,12.52
2017-11-18T04:01:46.319Z,14.00
2017-11-18T04:04:15.712Z,14.82
2017-11-18T04:06:46.564Z,13.32
2017-11-18T04:09:16.073Z,12.77
2017-11-18T04:11:46.205Z,13.52
2017-11-18T04:14:15.997Z,12.20
2017-11-18T04:16:45.381Z,11.57
2017-11-18T04:19:14.910Z,10.17
2017-11-18T04:21:44.120Z,11.82
2017-11-18T04:24:14.176Z,12.68
2017-11-18T04:26:43.036Z,13.40
2017-11-18T04:29:11.893Z,11.98
2017-11-18T04:31:41.324Z,8.85
2017-11-18T04:34:11.877Z,7.47
2017-11-18T04:36:41.349Z,11.60
2017-11-18T04:39:10.709Z,11.10
2017-11-18T04:41:40.032Z,9.82
2017-11-18T04:44:09.867Z,11.18
2017-11-18T04:46:42.569Z,14.30
2017-11-18T04:49:11.338Z,12.63
2017-11-18T04:51:43.199Z,16.77
2017-11-18T04:54:12.693Z,14.20
2017-11-18T04:56:43.139Z,13.88
2017-11-18T04:59:17.021Z,13.85
2017-11-18T05:01:47.852Z,14.93
2017-11-18T05:04:17.737Z,10.80
2017-11-18T05:06:46.883Z,10.65
2017-11-18T05:09:16.329Z,12.43
2017-11-18T05:11:45.788Z,11.63
2017-11-18T05:14:20.902Z,11.77
2017-11-18T05:16:51.766Z,11.12
2017-11-18T05:19:22.663Z,14.35
2017-11-18T05:21:54.003Z,8.82
2017-11-18T05:24:23.706Z,9.02
2017-11-18T05:26:54.507Z,9.15
2017-11-18T05:29:24.127Z,11.10
2017-11-18T05:31:54.206Z,10.00
2017-11-18T05:34:23.201Z,9.13
2017-11-18T05:36:53.315Z,10.57
2017-11-18T05:39:23.865Z,8.88
2017-11-18T05:41:53.246Z,11.60
2017-11-18T05:44:22.491Z,11.82
2017-11-18T05:46:52.332Z,9.98
2017-11-18T05:49:22.213Z,9.20
2017-11-18T05:51:52.713Z,8.30
2017-11-18T05:54:23.349Z,7.82
2017-11-18T05:56:54.042Z,9.27
2017-11-18T05:59:23.880Z,8.90
2017-11-18T06:01:55.854Z,7.30
2017-11-18T06:04:25.408Z,9.27
2017-11-18T06:06:54.912Z,8.48
2017-11-18T06:09:24.511Z,9.38
2017-11-18T06:11:58.556Z,8.70
2017-11-18T06:14:28.725Z,9.60
2017-11-18T06:16:58.991Z,9.15
2017-11-18T06:19:28.319Z,9.40
2017-11-18T06:21:57.879Z,8.10
2017-11-18T06:24:28.077Z,7.93
2017-11-18T06:26:59.599Z,7.80
2017-11-18T06:29:29.266Z,7.57
2017-11-18T06:31:58.568Z,8.35
2017-11-18T06:34:31.732Z,12.60
2017-11-18T06:37:02.532Z,9.10
2017-11-18T06:39:32.219Z,6.12
2017-11-18T06:42:06.310Z,5.82
2017-11-18T06:44:36.232Z,8.32
2017-11-18T06:47:06.530Z,7.72
2017-11-18T06:49:39.377Z,9.20
2017-11-18T06:52:09.776Z,7.97
2017-11-18T06:54:39.325Z,10.65
2017-11-18T06:57:08.920Z,13.85
2017-11-18T06:59:38.534Z,11.80
2017-11-18T07:02:10.006Z,12.30
2017-11-18T07:04:39.797Z,15.18
2017-11-18T07:07:09.554Z,15.85
2017-11-18T07:09:42.652Z,18.30
2017-11-18T07:12:21.141Z,14.38
2017-11-18T07:14:50.721Z,13.73
2017-11-18T07:17:21.464Z,15.98
2017-11-18T07:19:52.470Z,15.90
2017-11-18T07:22:23.058Z,11.65
2017-11-18T07:24:52.640Z,9.07
2017-11-18T07:27:22.147Z,13.13
2017-11-18T07:29:53.470Z,12.70
2017-11-18T07:32:23.010Z,16.00
2017-11-18T07:34:52.623Z,12.23
2017-11-18T07:37:21.946Z,10.05
2017-11-18T07:39:52.885Z,8.40
2017-11-18T07:42:22.535Z,9.05
2017-11-18T07:44:56.022Z,9.90
2017-11-18T07:47:25.536Z,7.43
2017-11-18T07:49:54.703Z,11.32
2017-11-18T07:52:24.312Z,10.40
2017-11-18T07:54:54.663Z,10.93
2017-11-18T07:57:24.836Z,9.52
2017-11-18T07:59:55.514Z,12.18
2017-11-18T08:02:26.228Z,8.93
2017-11-18T08:04:55.772Z,11.50
2017-11-18T08:07:25.089Z,10.13
2017-11-18T08:09:54.682Z,7.43
2017-11-18T08:12:24.673Z,10.07
2017-11-18T08:14:54.734Z,13.40
2017-11-18T08:17:24.156Z,12.52
2017-11-18T08:19:53.440Z,14.40
2017-11-18T08:22:30.256Z,15.50
2017-11-18T08:25:00.401Z,17.77
2017-11-18T08:27:29.873Z,11.77
2017-11-18T08:30:00.119Z,13.00
2017-11-18T08:32:33.124Z,8.82
2017-11-18T08:35:02.390Z,11.30
2017-11-18T08:37:32.647Z,6.32
2017-11-18T08:40:02.256Z,7.60
2017-11-18T08:42:31.796Z,9.43
2017-11-18T08:45:01.368Z,8.77
2017-11-18T08:47:30.952Z,12.35
2017-11-18T08:50:00.390Z,8.95
2017-11-18T08:52:29.664Z,8.40
2017-11-18T08:54:59.215Z,7.12
2017-11-18T08:57:28.828Z,8.27
2017-11-18T08:59:58.252Z,8.60
2017-11-18T09:02:28.408Z,13.15
2017-11-18T09:04:58.011Z,9.85
2017-11-18T09:07:27.447Z,10.60
2017-11-18T09:09:56.892Z,14.70
2017-11-18T09:12:27.371Z,9.70
2017-11-18T09:14:56.724Z,12.57
2017-11-18T09:17:26.944Z,8.88
2017-11-18T09:19:57.345Z,14.48
2017-11-18T09:22:26.749Z,12.18
2017-11-18T09:24:56.302Z,10.82
2017-11-18T09:27:26.410Z,11.75
2017-11-18T09:29:55.936Z,11.02
2017-11-18T09:32:25.438Z,11.63
2017-11-18T09:34:55.151Z,13.70
2017-11-18T09:37:24.781Z,12.27
2017-11-18T09:39:54.254Z,10.63
2017-11-18T09:42:23.591Z,14.93
2017-11-18T09:44:53.057Z,10.55
2017-11-18T09:47:22.365Z,20.37
2017-11-18T09:49:52.005Z,10.20
2017-11-18T09:52:21.268Z,11.60
2017-11-18T09:54:51.023Z,14.15
2017-11-18T09:57:20.590Z,17.30
2017-11-18T09:59:50.111Z,13.00
2017-11-18T10:02:19.852Z,17.35
2017-11-18T10:04:50.400Z,31.15
2017-11-18T10:07:19.904Z,75.18
2017-11-18T10:09:49.534Z,32.88
2017-11-18T10:12:19.276Z,28.08
2017-11-18T10:14:48.731Z,25.80
2017-11-18T10:17:18.149Z,23.23
2017-11-18T10:19:48.407Z,19.80
2017-11-18T10:22:18.011Z,16.25
2017-11-18T10:24:47.342Z,15.43
2017-11-18T10:27:16.679Z,15.32
2017-11-18T10:29:46.105Z,14.43
2017-11-18T10:32:15.487Z,16.50
2017-11-18T10:34:45.637Z,19.42
2017-11-18T10:37:15.190Z,16.83
2017-11-18T10:39:44.776Z,21.75
2017-11-18T10:42:14.196Z,20.75
2017-11-18T10:44:43.634Z,15.55
2017-11-18T10:47:13.144Z,20.05
2017-11-18T10:49:43.341Z,20.50
2017-11-18T10:52:12.762Z,16.42
2017-11-18T10:54:42.334Z,12.13
2017-11-18T10:57:11.955Z,18.00
2017-11-18T10:59:41.402Z,23.50
2017-11-18T11:02:10.911Z,20.92
2017-11-18T11:04:40.207Z,20.05
2017-11-18T11:07:09.462Z,22.75
2017-11-18T11:09:38.835Z,23.58
2017-11-18T11:12:08.239Z,20.80
2017-11-18T11:14:37.781Z,18.98
2017-11-18T11:17:07.344Z,18.40
2017-11-18T11:19:37.126Z,23.02
2017-11-18T11:22:07.181Z,22.25
2017-11-18T11:24:36.646Z,15.48
2017-11-18T11:27:06.862Z,13.70
2017-11-18T11:29:37.120Z,16.15
2017-11-18T11:32:06.738Z,11.93
2017-11-18T11:34:36.051Z,10.85
2017-11-18T11:37:05.423Z,16.73
2017-11-18T11:39:42.326Z,18.67
2017-11-18T11:42:11.630Z,14.68
2017-11-18T11:44:40.901Z,17.23
2017-11-18T11:47:10.444Z,13.43
2017-11-18T11:49:40.036Z,12.68
2017-11-18T11:52:09.569Z,13.68
2017-11-18T11:54:39.384Z,12.65
2017-11-18T11:57:08.841Z,14.52
2017-11-18T11:59:38.436Z,11.43
2017-11-18T12:02:08.205Z,12.80
2017-11-18T12:04:37.646Z,11.23
2017-11-18T12:07:08.003Z,15.30
2017-11-18T12:09:37.585Z,13.95
2017-11-18T12:12:11.358Z,10.18
2017-11-18T12:14:40.806Z,14.80
2017-11-18T12:17:10.332Z,16.37
2017-11-18T12:19:39.713Z,10.27
2017-11-18T12:22:08.888Z,15.13
2017-11-18T12:24:38.519Z,13.57
2017-11-18T12:27:08.053Z,17.25
2017-11-18T12:29:37.733Z,10.35
2017-11-18T12:32:07.217Z,15.45
2017-11-18T12:34:36.781Z,10.48
2017-11-18T12:37:06.148Z,11.45
2017-11-18T12:39:35.837Z,12.55
2017-11-18T12:42:05.268Z,12.40
2017-11-18T12:44:34.721Z,17.15
2017-11-18T12:47:04.682Z,16.15
2017-11-18T12:49:34.173Z,11.18
2017-11-18T12:52:03.890Z,11.68
2017-11-18T12:54:33.350Z,11.60
2017-11-18T12:57:02.791Z,13.93
2017-11-18T12:59:32.219Z,17.65
2017-11-18T13:02:01.774Z,17.35
2017-11-18T13:04:31.320Z,14.05
2017-11-18T13:07:00.591Z,14.68
2017-11-18T13:09:30.144Z,10.98
2017-11-18T13:11:59.831Z,16.27
2017-11-18T13:14:29.257Z,12.93
2017-11-18T13:16:58.653Z,16.15
2017-11-18T13:19:28.122Z,18.00
2017-11-18T13:21:58.424Z,15.43
2017-11-18T13:24:28.098Z,20.42
2017-11-18T13:26:57.616Z,11.20
2017-11-18T13:29:27.233Z,12.43
2017-11-18T13:31:56.549Z,19.73
2017-11-18T13:34:25.937Z,19.70
2017-11-18T13:36:55.492Z,14.80
2017-11-18T13:39:25.185Z,9.73
2017-11-18T13:41:54.848Z,11.05
2017-11-18T13:44:24.164Z,18.20
2017-11-18T13:46:53.653Z,11.38
2017-11-18T13:49:23.354Z,14.45
2017-11-18T13:51:52.766Z,13.50
2017-11-18T13:54:21.948Z,20.42
2017-11-18T13:56:51.635Z,15.43
2017-11-18T13:59:21.133Z,12.07
2017-11-18T14:01:50.785Z,10.18
2017-11-18T14:04:20.396Z,14.27
2017-11-18T14:06:49.918Z,9.68
2017-11-18T14:09:19.552Z,10.43
2017-11-18T14:11:49.021Z,11.88
2017-11-18T14:14:18.624Z,19.40
2017-11-18T14:19:22.470Z,17.27
2017-11-18T14:21:51.845Z,17.70
2017-11-18T14:24:21.533Z,15.18
2017-11-18T14:26:51.143Z,19.87
2017-11-18T14:29:20.653Z,28.00
2017-11-18T14:31:50.332Z,20.88
2017-11-18T14:34:20.139Z,25.12
2017-11-18T14:36:50.044Z,15.63
2017-11-18T14:39:20.640Z,23.12
2017-11-18T14:41:50.265Z,15.23
2017-11-18T14:44:19.582Z,31.20
2017-11-18T14:46:49.435Z,29.37
2017-11-18T14:49:18.791Z,30.60
2017-11-18T14:51:48.298Z,25.70
2017-11-18T14:54:17.957Z,22.90
2017-11-18T14:56:47.363Z,125.55
2017-11-18T14:59:16.855Z,28.80
2017-11-18T15:01:46.975Z,21.00
2017-11-18T15:04:16.969Z,41.33
2017-11-18T15:06:46.516Z,52.30
2017-11-18T15:09:16.334Z,57.80
2017-11-18T15:11:47.554Z,82.47
2017-11-18T15:14:21.675Z,91.22
2017-11-18T15:16:56.799Z,81.32
2017-11-18T15:19:31.819Z,89.72
2017-11-18T15:22:13.915Z,113.93
2017-11-18T15:24:49.960Z,56.22
2017-11-18T15:27:24.999Z,69.05
2017-11-18T15:33:10.016Z,53.85
2017-11-18T15:35:55.585Z,68.12
2017-11-18T15:41:27.761Z,82.03
2017-11-18T15:44:03.321Z,82.53
2017-11-18T15:46:36.102Z,77.28
2017-11-18T15:49:10.929Z,84.97
2017-11-18T15:51:56.523Z,74.22
2017-11-18T15:54:33.426Z,70.55
2017-11-18T15:57:14.694Z,59.20
2017-11-18T15:59:44.653Z,55.00
2017-11-18T16:02:32.401Z,74.62
2017-11-18T16:05:03.197Z,53.80
2017-11-18T16:07:33.690Z,55.38
2017-11-18T16:10:03.262Z,52.15
2017-11-18T16:12:32.680Z,35.75
2017-11-18T16:15:02.522Z,53.60
2017-11-18T16:17:32.395Z,47.03
2017-11-18T16:20:02.298Z,43.35
2017-11-18T16:22:32.135Z,61.10
2017-11-18T16:25:01.726Z,44.55
2017-11-18T16:27:32.200Z,45.15
2017-11-18T16:30:02.416Z,28.65
2017-11-18T16:32:33.062Z,48.55
2017-11-18T16:35:02.691Z,46.70
2017-11-18T16:37:32.362Z,38.65
2017-11-18T16:40:03.043Z,30.65
2017-11-18T16:42:32.915Z,20.10
2017-11-18T16:45:02.528Z,17.70
2017-11-18T16:47:32.167Z,24.58
2017-11-18T16:50:02.041Z,19.30
2017-11-18T16:52:32.081Z,24.05
2017-11-18T16:55:01.564Z,29.92
2017-11-18T16:57:31.198Z,27.27
2017-11-18T17:00:00.829Z,26.87
2017-11-18T17:02:30.336Z,23.73
2017-11-18T17:05:00.787Z,20.98
2017-11-18T17:07:30.852Z,15.00
2017-11-18T17:10:00.767Z,12.90
2017-11-18T17:12:32.048Z,14.65
2017-11-18T17:15:01.451Z,13.43
2017-11-18T17:17:30.917Z,15.30
2017-11-18T17:20:00.533Z,17.95
2017-11-18T17:22:31.285Z,13.60
2017-11-18T17:25:01.164Z,16.85
2017-11-18T17:27:30.785Z,12.57
2017-11-18T17:30:00.482Z,15.15
2017-11-18T17:32:30.301Z,16.95
2017-11-18T17:35:00.417Z,27.10
2017-11-18T17:37:30.597Z,19.13
2017-11-18T17:40:00.405Z,21.13
2017-11-18T17:42:30.549Z,18.47
2017-11-18T17:45:00.270Z,14.60
2017-11-18T17:47:30.392Z,15.20
2017-11-18T17:50:00.497Z,14.30
2017-11-18T17:52:30.179Z,10.93
2017-11-18T17:54:59.935Z,15.37
2017-11-18T17:57:29.703Z,13.23
2017-11-18T17:59:59.381Z,10.75
2017-11-18T18:02:28.919Z,13.10
2017-11-18T18:04:58.401Z,12.57
2017-11-18T18:07:27.894Z,9.30
2017-11-18T18:09:57.462Z,10.03
2017-11-18T18:12:28.481Z,8.97
2017-11-18T18:14:59.134Z,9.50
2017-11-18T18:17:28.640Z,9.53
2017-11-18T18:19:58.185Z,11.73
2017-11-18T18:22:28.049Z,8.93
2017-11-18T18:24:58.438Z,9.23
2017-11-18T18:27:27.858Z,12.30
2017-11-18T18:29:57.384Z,10.93
2017-11-18T18:32:27.789Z,10.70
2017-11-18T18:34:57.148Z,10.70
2017-11-18T18:37:27.003Z,9.97
2017-11-18T18:39:56.801Z,9.70
2017-11-18T18:42:26.291Z,8.40
2017-11-18T18:45:03.745Z,7.87
2017-11-18T18:47:41.095Z,7.87
2017-11-18T18:50:11.861Z,6.77
2017-11-18T18:52:41.847Z,12.17
2017-11-18T18:55:19.414Z,8.10
2017-11-18T18:57:50.347Z,9.07
2017-11-18T19:00:20.042Z,7.97
2017-11-18T19:05:30.425Z,7.13
2017-11-18T19:08:03.862Z,8.00
2017-11-18T19:10:39.799Z,8.93
2017-11-18T19:13:15.953Z,8.80
2017-11-18T19:15:53.353Z,8.20
2017-11-18T19:18:30.724Z,7.97
2017-11-18T19:21:06.217Z,79.83
2017-11-18T19:23:36.619Z,7.50
2017-11-18T19:26:06.611Z,9.80
2017-11-18T19:28:42.748Z,7.27
2017-11-18T19:31:13.139Z,5.93
2017-11-18T19:33:42.599Z,5.87
2017-11-18T19:36:14.474Z,8.87
2017-11-18T19:38:44.389Z,6.77
2017-11-18T19:41:15.045Z,8.67
2017-11-18T19:43:44.968Z,5.83
2017-11-18T19:46:14.304Z,5.77
2017-11-18T19:48:43.834Z,8.37
2017-11-18T19:51:14.121Z,3.80
2017-11-18T19:53:43.541Z,4.63
2017-11-18T19:56:12.844Z,4.90
2017-11-18T19:58:42.554Z,5.77
2017-11-18T20:01:11.880Z,6.57
2017-11-18T20:03:42.444Z,4.77
2017-11-18T20:06:12.211Z,15.93
2017-11-18T20:08:42.555Z,10.10
2017-11-18T20:11:14.433Z,5.23
2017-11-18T20:13:52.640Z,5.70
2017-11-18T20:16:23.122Z,6.47
2017-11-18T20:18:52.786Z,6.03
2017-11-18T20:21:22.380Z,4.50
2017-11-18T20:23:52.077Z,9.37
2017-11-18T20:26:21.938Z,5.83
2017-11-18T20:28:51.647Z,3.20
2017-11-18T20:31:20.915Z,2.80
2017-11-18T20:33:50.849Z,5.03
2017-11-18T20:36:21.018Z,3.60
2017-11-18T20:38:50.510Z,2.40
2017-11-18T20:41:19.724Z,4.20
2017-11-18T20:43:51.565Z,3.13
2017-11-18T20:46:21.937Z,4.40
2017-11-18T20:48:51.485Z,3.43
2017-11-18T20:51:21.102Z,3.60
2017-11-18T20:53:50.716Z,5.17
2017-11-18T20:56:20.149Z,2.77
2017-11-18T20:58:50.603Z,3.30
2017-11-18T21:01:21.045Z,3.00
2017-11-18T21:03:50.516Z,3.40
2017-11-18T21:06:20.720Z,5.80
2017-11-18T21:08:50.296Z,3.90
2017-11-18T21:11:19.838Z,2.57
2017-11-18T21:13:49.142Z,2.17
2017-11-18T21:16:18.855Z,4.20
2017-11-18T21:18:50.733Z,2.97
2017-11-18T21:21:20.475Z,4.70
2017-11-18T21:23:50.086Z,3.13
2017-11-18T21:26:19.378Z,2.97
2017-11-18T21:28:48.628Z,3.23
2017-11-18T21:31:17.947Z,2.80
2017-11-18T21:33:47.595Z,14.63
2017-11-18T21:36:17.040Z,4.47
2017-11-18T21:38:47.059Z,3.00
2017-11-18T21:41:16.687Z,3.93
2017-11-18T21:43:46.137Z,4.47
2017-11-18T21:46:15.411Z,3.00
2017-11-18T21:48:44.837Z,2.40
2017-11-18T21:51:14.442Z,3.70
2017-11-18T21:53:44.363Z,3.73
2017-11-18T21:56:15.549Z,4.07
2017-11-18T21:58:45.129Z,3.40
2017-11-18T22:01:15.023Z,3.30
2017-11-18T22:03:44.301Z,4.50
2017-11-18T22:06:14.713Z,4.67
2017-11-18T22:08:44.235Z,5.27
2017-11-18T22:11:13.486Z,5.97
2017-11-18T22:13:42.938Z,4.57
2017-11-18T22:16:12.468Z,11.70
2017-11-18T22:18:43.009Z,7.87
2017-11-18T22:21:14.636Z,6.70
2017-11-18T22:23:44.214Z,7.60
2017-11-18T22:26:14.819Z,7.30
2017-11-18T22:28:45.550Z,6.33
2017-11-18T22:31:15.955Z,8.63
2017-11-18T22:33:45.303Z,7.23
2017-11-18T22:36:15.656Z,7.37
2017-11-18T22:38:45.396Z,6.77
2017-11-18T22:41:19.584Z,7.20
2017-11-18T22:43:49.186Z,12.00
2017-11-18T22:46:18.558Z,9.37
2017-11-18T22:48:48.178Z,6.63
2017-11-18T22:51:19.351Z,7.73
2017-11-18T22:53:48.609Z,6.47
2017-11-18T22:56:18.129Z,5.93
2017-11-18T22:58:47.552Z,6.50
2017-11-18T23:01:18.095Z,5.83
2017-11-18T23:03:47.490Z,9.20
2017-11-18T23:06:17.554Z,6.30
2017-11-18T23:08:47.942Z,9.40
2017-11-18T23:11:17.652Z,8.10
2017-11-18T23:13:48.020Z,10.77
2017-11-18T23:16:17.560Z,7.80
2017-11-18T23:18:46.803Z,5.93
2017-11-18T23:21:18.256Z,7.50
2017-11-18T23:23:47.893Z,9.13
2017-11-18T23:26:19.471Z,10.77
2017-11-18T23:28:49.666Z,17.70
2017-11-18T23:31:21.674Z,9.63
2017-11-18T23:33:51.116Z,16.47
2017-11-18T23:36:20.724Z,18.07
2017-11-18T23:38:51.694Z,14.30
2017-11-18T23:41:25.432Z,17.63
2017-11-18T23:43:55.026Z,13.50
2017-11-18T23:46:25.778Z,23.63
2017-11-18T23:51:29.192Z,12.90
2017-11-18T23:53:58.573Z,28.50
2017-11-18T23:56:28.283Z,21.23
2017-11-18T23:58:59.192Z,10.57
